sensor_id;sensor_type;location;lat;lon;timestamp;P1;durP1;ratioP1;P2;durP2;ratioP2
12120;SDS011;6124;59.460;17.908;2022-12-29T00:00:02;7.10;;;4.33;;
12120;SDS011;6124;59.460;17.908;2022-12-29T00:02:30;5.80;;;3.97;;
12120;SDS011;6124;59.460;17.908;2022-12-29T00:04:57;8.87;;;4.77;;
12120;SDS011;6124;59.460;17.908;2022-12-29T00:07:25;7.00;;;4.13;;
12120;SDS011;6124;59.460;17.908;2022-12-29T00:09:53;12.23;;;5.00;;
12120;SDS011;6124;59.460;17.908;2022-12-29T00:12:21;12.37;;;4.87;;
12120;SDS011;6124;59.460;17.908;2022-12-29T00:14:48;7.63;;;4.40;;
12120;SDS011;6124;59.460;17.908;2022-12-29T00:17:33;18.30;;;5.40;;
12120;SDS011;6124;59.460;17.908;2022-12-29T00:20:00;9.93;;;5.07;;
12120;SDS011;6124;59.460;17.908;2022-12-29T00:22:45;14.47;;;5.43;;
12120;SDS011;6124;59.460;17.908;2022-12-29T00:25:31;10.40;;;5.03;;
12120;SDS011;6124;59.460;17.908;2022-12-29T00:28:16;8.60;;;4.67;;
12120;SDS011;6124;59.460;17.908;2022-12-29T00:31:01;6.43;;;3.53;;
12120;SDS011;6124;59.460;17.908;2022-12-29T00:33:58;6.37;;;3.83;;
12120;SDS011;6124;59.460;17.908;2022-12-29T00:36:43;7.50;;;3.67;;
12120;SDS011;6124;59.460;17.908;2022-12-29T00:39:11;6.73;;;3.70;;
12120;SDS011;6124;59.460;17.908;2022-12-29T00:42:03;6.43;;;3.67;;
12120;SDS011;6124;59.460;17.908;2022-12-29T00:44:48;9.17;;;3.77;;
12120;SDS011;6124;59.460;17.908;2022-12-29T00:47:15;9.03;;;4.60;;
12120;SDS011;6124;59.460;17.908;2022-12-29T00:49:43;11.10;;;4.73;;
12120;SDS011;6124;59.460;17.908;2022-12-29T00:52:10;18.67;;;5.30;;
12120;SDS011;6124;59.460;17.908;2022-12-29T00:54:38;14.50;;;5.37;;
12120;SDS011;6124;59.460;17.908;2022-12-29T00:57:08;10.63;;;5.27;;
12120;SDS011;6124;59.460;17.908;2022-12-29T00:59:36;11.90;;;5.53;;
12120;SDS011;6124;59.460;17.908;2022-12-29T01:02:03;8.40;;;4.57;;
12120;SDS011;6124;59.460;17.908;2022-12-29T01:04:31;10.77;;;4.17;;
12120;SDS011;6124;59.460;17.908;2022-12-29T01:06:58;10.80;;;4.23;;
12120;SDS011;6124;59.460;17.908;2022-12-29T01:09:26;37.10;;;7.07;;
12120;SDS011;6124;59.460;17.908;2022-12-29T01:12:12;14.17;;;5.23;;
12120;SDS011;6124;59.460;17.908;2022-12-29T01:14:40;11.10;;;4.73;;
12120;SDS011;6124;59.460;17.908;2022-12-29T01:17:07;11.43;;;4.53;;
12120;SDS011;6124;59.460;17.908;2022-12-29T01:19:35;10.70;;;4.97;;
12120;SDS011;6124;59.460;17.908;2022-12-29T01:22:02;9.07;;;4.13;;
12120;SDS011;6124;59.460;17.908;2022-12-29T01:24:29;8.70;;;4.77;;
12120;SDS011;6124;59.460;17.908;2022-12-29T01:26:57;11.83;;;5.50;;
12120;SDS011;6124;59.460;17.908;2022-12-29T01:29:25;18.70;;;6.90;;
12120;SDS011;6124;59.460;17.908;2022-12-29T01:31:53;23.87;;;7.63;;
12120;SDS011;6124;59.460;17.908;2022-12-29T01:34:20;13.53;;;5.90;;
12120;SDS011;6124;59.460;17.908;2022-12-29T01:36:47;18.87;;;6.30;;
12120;SDS011;6124;59.460;17.908;2022-12-29T01:39:14;14.83;;;6.07;;
12120;SDS011;6124;59.460;17.908;2022-12-29T01:41:42;11.07;;;5.37;;
12120;SDS011;6124;59.460;17.908;2022-12-29T01:46:56;7.53;;;4.53;;
12120;SDS011;6124;59.460;17.908;2022-12-29T01:49:24;7.13;;;4.07;;
12120;SDS011;6124;59.460;17.908;2022-12-29T01:51:55;8.20;;;4.30;;
12120;SDS011;6124;59.460;17.908;2022-12-29T01:54:25;7.07;;;3.93;;
12120;SDS011;6124;59.460;17.908;2022-12-29T01:56:53;16.47;;;4.53;;
12120;SDS011;6124;59.460;17.908;2022-12-29T01:59:22;12.80;;;4.50;;
12120;SDS011;6124;59.460;17.908;2022-12-29T02:01:50;8.30;;;4.37;;
12120;SDS011;6124;59.460;17.908;2022-12-29T02:04:19;8.67;;;4.07;;
12120;SDS011;6124;59.460;17.908;2022-12-29T02:06:48;10.53;;;4.03;;
12120;SDS011;6124;59.460;17.908;2022-12-29T02:09:17;11.23;;;4.57;;
12120;SDS011;6124;59.460;17.908;2022-12-29T02:11:44;9.23;;;3.30;;
12120;SDS011;6124;59.460;17.908;2022-12-29T02:14:13;8.37;;;3.23;;
12120;SDS011;6124;59.460;17.908;2022-12-29T02:16:44;13.93;;;3.93;;
12120;SDS011;6124;59.460;17.908;2022-12-29T02:19:33;12.30;;;3.23;;
12120;SDS011;6124;59.460;17.908;2022-12-29T02:22:09;9.10;;;3.30;;
12120;SDS011;6124;59.460;17.908;2022-12-29T02:24:54;13.27;;;3.67;;
12120;SDS011;6124;59.460;17.908;2022-12-29T02:30:07;5.97;;;3.10;;
12120;SDS011;6124;59.460;17.908;2022-12-29T02:32:38;32.60;;;4.47;;
12120;SDS011;6124;59.460;17.908;2022-12-29T02:35:09;8.97;;;3.10;;
12120;SDS011;6124;59.460;17.908;2022-12-29T02:37:42;19.17;;;3.67;;
12120;SDS011;6124;59.460;17.908;2022-12-29T02:40:13;14.27;;;3.33;;
12120;SDS011;6124;59.460;17.908;2022-12-29T02:42:46;43.80;;;5.37;;
12120;SDS011;6124;59.460;17.908;2022-12-29T02:45:16;6.03;;;3.13;;
12120;SDS011;6124;59.460;17.908;2022-12-29T02:47:49;7.70;;;3.30;;
12120;SDS011;6124;59.460;17.908;2022-12-29T02:50:21;6.80;;;3.30;;
12120;SDS011;6124;59.460;17.908;2022-12-29T02:52:50;17.57;;;4.30;;
12120;SDS011;6124;59.460;17.908;2022-12-29T02:55:18;22.87;;;4.10;;
12120;SDS011;6124;59.460;17.908;2022-12-29T02:57:45;21.70;;;4.67;;
12120;SDS011;6124;59.460;17.908;2022-12-29T03:00:13;28.47;;;4.43;;
12120;SDS011;6124;59.460;17.908;2022-12-29T03:02:50;7.20;;;3.50;;
12120;SDS011;6124;59.460;17.908;2022-12-29T03:05:24;12.40;;;3.67;;
12120;SDS011;6124;59.460;17.908;2022-12-29T03:07:58;9.07;;;3.63;;
12120;SDS011;6124;59.460;17.908;2022-12-29T03:10:30;14.73;;;4.20;;
12120;SDS011;6124;59.460;17.908;2022-12-29T03:13:03;7.87;;;3.53;;
12120;SDS011;6124;59.460;17.908;2022-12-29T03:15:50;21.13;;;4.53;;
12120;SDS011;6124;59.460;17.908;2022-12-29T03:18:30;19.10;;;4.43;;
12120;SDS011;6124;59.460;17.908;2022-12-29T03:21:00;25.20;;;4.87;;
12120;SDS011;6124;59.460;17.908;2022-12-29T03:23:29;21.33;;;4.70;;
12120;SDS011;6124;59.460;17.908;2022-12-29T03:25:58;12.03;;;4.73;;
12120;SDS011;6124;59.460;17.908;2022-12-29T03:28:28;25.53;;;5.43;;
12120;SDS011;6124;59.460;17.908;2022-12-29T03:30:57;11.57;;;3.83;;
12120;SDS011;6124;59.460;17.908;2022-12-29T03:33:25;29.60;;;5.97;;
12120;SDS011;6124;59.460;17.908;2022-12-29T03:35:57;16.33;;;5.20;;
12120;SDS011;6124;59.460;17.908;2022-12-29T03:38:27;23.33;;;5.53;;
12120;SDS011;6124;59.460;17.908;2022-12-29T03:40:56;30.67;;;7.17;;
12120;SDS011;6124;59.460;17.908;2022-12-29T03:43:25;22.27;;;6.50;;
12120;SDS011;6124;59.460;17.908;2022-12-29T03:45:53;31.43;;;7.50;;
12120;SDS011;6124;59.460;17.908;2022-12-29T03:48:20;16.57;;;6.20;;
12120;SDS011;6124;59.460;17.908;2022-12-29T03:50:48;26.00;;;7.07;;
12120;SDS011;6124;59.460;17.908;2022-12-29T03:53:16;19.53;;;6.60;;
12120;SDS011;6124;59.460;17.908;2022-12-29T03:55:44;18.47;;;6.80;;
12120;SDS011;6124;59.460;17.908;2022-12-29T03:58:11;14.93;;;6.80;;
12120;SDS011;6124;59.460;17.908;2022-12-29T04:00:38;20.87;;;6.93;;
12120;SDS011;6124;59.460;17.908;2022-12-29T04:03:05;20.03;;;7.53;;
12120;SDS011;6124;59.460;17.908;2022-12-29T04:05:33;19.57;;;7.43;;
12120;SDS011;6124;59.460;17.908;2022-12-29T04:08:00;21.10;;;7.43;;
12120;SDS011;6124;59.460;17.908;2022-12-29T04:10:29;17.07;;;6.83;;
12120;SDS011;6124;59.460;17.908;2022-12-29T04:12:56;20.57;;;8.00;;
12120;SDS011;6124;59.460;17.908;2022-12-29T04:15:24;20.43;;;8.00;;
12120;SDS011;6124;59.460;17.908;2022-12-29T04:17:51;23.23;;;8.40;;
12120;SDS011;6124;59.460;17.908;2022-12-29T04:20:18;24.40;;;9.57;;
12120;SDS011;6124;59.460;17.908;2022-12-29T04:23:04;19.80;;;8.03;;
12120;SDS011;6124;59.460;17.908;2022-12-29T04:25:33;20.60;;;8.77;;
12120;SDS011;6124;59.460;17.908;2022-12-29T04:28:01;18.57;;;8.43;;
12120;SDS011;6124;59.460;17.908;2022-12-29T04:30:30;17.63;;;7.90;;
12120;SDS011;6124;59.460;17.908;2022-12-29T04:32:57;21.30;;;8.73;;
12120;SDS011;6124;59.460;17.908;2022-12-29T04:35:24;22.07;;;10.20;;
12120;SDS011;6124;59.460;17.908;2022-12-29T04:37:52;21.77;;;9.37;;
12120;SDS011;6124;59.460;17.908;2022-12-29T04:40:19;18.97;;;8.90;;
12120;SDS011;6124;59.460;17.908;2022-12-29T04:42:48;25.27;;;9.77;;
12120;SDS011;6124;59.460;17.908;2022-12-29T04:45:15;21.93;;;9.37;;
12120;SDS011;6124;59.460;17.908;2022-12-29T04:47:43;26.73;;;9.77;;
12120;SDS011;6124;59.460;17.908;2022-12-29T04:50:10;19.60;;;9.03;;
12120;SDS011;6124;59.460;17.908;2022-12-29T04:52:37;22.50;;;9.93;;
12120;SDS011;6124;59.460;17.908;2022-12-29T04:55:05;20.67;;;9.30;;
12120;SDS011;6124;59.460;17.908;2022-12-29T04:57:33;20.80;;;9.93;;
12120;SDS011;6124;59.460;17.908;2022-12-29T05:00:01;18.20;;;8.50;;
12120;SDS011;6124;59.460;17.908;2022-12-29T05:02:29;17.27;;;8.70;;
12120;SDS011;6124;59.460;17.908;2022-12-29T05:04:56;24.53;;;9.30;;
12120;SDS011;6124;59.460;17.908;2022-12-29T05:07:23;18.37;;;8.73;;
12120;SDS011;6124;59.460;17.908;2022-12-29T05:09:51;18.33;;;9.13;;
12120;SDS011;6124;59.460;17.908;2022-12-29T05:12:18;20.97;;;9.73;;
12120;SDS011;6124;59.460;17.908;2022-12-29T05:14:45;23.00;;;9.30;;
12120;SDS011;6124;59.460;17.908;2022-12-29T05:17:14;26.37;;;9.40;;
12120;SDS011;6124;59.460;17.908;2022-12-29T05:19:41;20.10;;;9.37;;
12120;SDS011;6124;59.460;17.908;2022-12-29T05:22:09;19.53;;;9.87;;
12120;SDS011;6124;59.460;17.908;2022-12-29T05:24:36;22.10;;;9.60;;
12120;SDS011;6124;59.460;17.908;2022-12-29T05:27:03;25.87;;;9.83;;
12120;SDS011;6124;59.460;17.908;2022-12-29T05:29:30;23.40;;;9.60;;
12120;SDS011;6124;59.460;17.908;2022-12-29T05:31:58;21.33;;;9.23;;
12120;SDS011;6124;59.460;17.908;2022-12-29T05:34:26;16.93;;;8.00;;
12120;SDS011;6124;59.460;17.908;2022-12-29T05:36:54;20.03;;;9.07;;
12120;SDS011;6124;59.460;17.908;2022-12-29T05:39:21;22.23;;;9.43;;
12120;SDS011;6124;59.460;17.908;2022-12-29T05:41:48;18.07;;;8.77;;
12120;SDS011;6124;59.460;17.908;2022-12-29T05:44:17;18.90;;;8.10;;
12120;SDS011;6124;59.460;17.908;2022-12-29T05:46:44;17.27;;;8.33;;
12120;SDS011;6124;59.460;17.908;2022-12-29T05:49:12;20.23;;;8.63;;
12120;SDS011;6124;59.460;17.908;2022-12-29T05:51:40;18.87;;;8.60;;
12120;SDS011;6124;59.460;17.908;2022-12-29T05:54:08;16.77;;;8.43;;
12120;SDS011;6124;59.460;17.908;2022-12-29T05:56:35;24.07;;;8.70;;
12120;SDS011;6124;59.460;17.908;2022-12-29T05:59:02;19.93;;;8.00;;
12120;SDS011;6124;59.460;17.908;2022-12-29T06:01:30;21.23;;;8.20;;
12120;SDS011;6124;59.460;17.908;2022-12-29T06:03:59;22.50;;;8.83;;
12120;SDS011;6124;59.460;17.908;2022-12-29T06:06:26;17.90;;;8.67;;
12120;SDS011;6124;59.460;17.908;2022-12-29T06:08:55;20.40;;;8.10;;
12120;SDS011;6124;59.460;17.908;2022-12-29T06:11:23;18.50;;;8.83;;
12120;SDS011;6124;59.460;17.908;2022-12-29T06:13:50;21.67;;;9.40;;
12120;SDS011;6124;59.460;17.908;2022-12-29T06:16:17;20.60;;;8.37;;
12120;SDS011;6124;59.460;17.908;2022-12-29T06:18:45;15.03;;;7.60;;
12120;SDS011;6124;59.460;17.908;2022-12-29T06:21:12;19.20;;;9.23;;
12120;SDS011;6124;59.460;17.908;2022-12-29T06:23:39;22.20;;;9.40;;
12120;SDS011;6124;59.460;17.908;2022-12-29T06:26:08;22.37;;;9.43;;
12120;SDS011;6124;59.460;17.908;2022-12-29T06:28:35;17.07;;;10.00;;
12120;SDS011;6124;59.460;17.908;2022-12-29T06:31:03;18.70;;;8.97;;
12120;SDS011;6124;59.460;17.908;2022-12-29T06:33:30;20.87;;;9.20;;
12120;SDS011;6124;59.460;17.908;2022-12-29T06:35:58;16.23;;;8.30;;
12120;SDS011;6124;59.460;17.908;2022-12-29T06:38:25;19.37;;;9.43;;
12120;SDS011;6124;59.460;17.908;2022-12-29T06:40:52;16.87;;;8.80;;
12120;SDS011;6124;59.460;17.908;2022-12-29T06:43:21;19.83;;;8.23;;
12120;SDS011;6124;59.460;17.908;2022-12-29T06:45:48;21.13;;;9.00;;
12120;SDS011;6124;59.460;17.908;2022-12-29T06:48:16;19.33;;;8.43;;
12120;SDS011;6124;59.460;17.908;2022-12-29T06:50:43;23.50;;;8.20;;
12120;SDS011;6124;59.460;17.908;2022-12-29T06:53:10;24.43;;;10.47;;
12120;SDS011;6124;59.460;17.908;2022-12-29T06:55:38;21.30;;;8.67;;
12120;SDS011;6124;59.460;17.908;2022-12-29T06:58:05;18.77;;;9.23;;
12120;SDS011;6124;59.460;17.908;2022-12-29T07:00:34;25.23;;;9.20;;
12120;SDS011;6124;59.460;17.908;2022-12-29T07:03:01;25.33;;;10.20;;
12120;SDS011;6124;59.460;17.908;2022-12-29T07:05:28;24.63;;;9.33;;
12120;SDS011;6124;59.460;17.908;2022-12-29T07:07:57;23.13;;;8.80;;
12120;SDS011;6124;59.460;17.908;2022-12-29T07:10:25;20.23;;;8.57;;
12120;SDS011;6124;59.460;17.908;2022-12-29T07:12:52;22.53;;;9.20;;
12120;SDS011;6124;59.460;17.908;2022-12-29T07:15:20;20.43;;;8.63;;
12120;SDS011;6124;59.460;17.908;2022-12-29T07:17:48;21.07;;;8.87;;
12120;SDS011;6124;59.460;17.908;2022-12-29T07:20:16;24.27;;;9.50;;
12120;SDS011;6124;59.460;17.908;2022-12-29T07:22:43;28.80;;;9.70;;
12120;SDS011;6124;59.460;17.908;2022-12-29T07:25:12;20.60;;;9.57;;
12120;SDS011;6124;59.460;17.908;2022-12-29T07:27:39;28.57;;;9.17;;
12120;SDS011;6124;59.460;17.908;2022-12-29T07:30:07;29.00;;;10.70;;
12120;SDS011;6124;59.460;17.908;2022-12-29T07:32:34;27.10;;;10.10;;
12120;SDS011;6124;59.460;17.908;2022-12-29T07:35:03;24.17;;;9.83;;
12120;SDS011;6124;59.460;17.908;2022-12-29T07:37:31;37.30;;;11.47;;
12120;SDS011;6124;59.460;17.908;2022-12-29T07:39:58;36.60;;;11.33;;
12120;SDS011;6124;59.460;17.908;2022-12-29T07:42:26;29.17;;;11.27;;
12120;SDS011;6124;59.460;17.908;2022-12-29T07:44:53;34.50;;;11.50;;
12120;SDS011;6124;59.460;17.908;2022-12-29T07:47:21;37.20;;;11.77;;
12120;SDS011;6124;59.460;17.908;2022-12-29T07:49:48;26.10;;;10.67;;
12120;SDS011;6124;59.460;17.908;2022-12-29T07:52:17;32.03;;;12.17;;
12120;SDS011;6124;59.460;17.908;2022-12-29T07:54:44;30.50;;;11.47;;
12120;SDS011;6124;59.460;17.908;2022-12-29T07:57:11;46.73;;;12.53;;
12120;SDS011;6124;59.460;17.908;2022-12-29T07:59:38;35.13;;;12.47;;
12120;SDS011;6124;59.460;17.908;2022-12-29T08:02:08;39.60;;;13.50;;
12120;SDS011;6124;59.460;17.908;2022-12-29T08:04:36;42.57;;;11.87;;
12120;SDS011;6124;59.460;17.908;2022-12-29T08:07:03;35.27;;;12.70;;
12120;SDS011;6124;59.460;17.908;2022-12-29T08:09:32;32.73;;;12.37;;
12120;SDS011;6124;59.460;17.908;2022-12-29T08:11:59;28.00;;;11.67;;
12120;SDS011;6124;59.460;17.908;2022-12-29T08:14:27;33.93;;;11.13;;
12120;SDS011;6124;59.460;17.908;2022-12-29T08:16:54;28.63;;;12.20;;
12120;SDS011;6124;59.460;17.908;2022-12-29T08:19:21;33.23;;;12.13;;
12120;SDS011;6124;59.460;17.908;2022-12-29T08:21:49;30.43;;;11.33;;
12120;SDS011;6124;59.460;17.908;2022-12-29T08:24:16;26.57;;;10.90;;
12120;SDS011;6124;59.460;17.908;2022-12-29T08:26:45;33.83;;;11.57;;
12120;SDS011;6124;59.460;17.908;2022-12-29T08:29:12;24.43;;;12.30;;
12120;SDS011;6124;59.460;17.908;2022-12-29T08:31:39;29.23;;;11.23;;
12120;SDS011;6124;59.460;17.908;2022-12-29T08:34:07;30.67;;;12.10;;
12120;SDS011;6124;59.460;17.908;2022-12-29T08:36:34;27.33;;;10.30;;
12120;SDS011;6124;59.460;17.908;2022-12-29T08:39:02;27.20;;;10.53;;
12120;SDS011;6124;59.460;17.908;2022-12-29T08:41:29;31.37;;;17.07;;
12120;SDS011;6124;59.460;17.908;2022-12-29T08:43:58;25.07;;;9.93;;
12120;SDS011;6124;59.460;17.908;2022-12-29T08:46:25;23.53;;;9.23;;
12120;SDS011;6124;59.460;17.908;2022-12-29T08:48:53;26.03;;;9.57;;
12120;SDS011;6124;59.460;17.908;2022-12-29T08:51:20;20.37;;;8.13;;
12120;SDS011;6124;59.460;17.908;2022-12-29T08:53:47;20.23;;;8.47;;
12120;SDS011;6124;59.460;17.908;2022-12-29T08:56:15;24.73;;;9.10;;
12120;SDS011;6124;59.460;17.908;2022-12-29T08:58:43;23.30;;;9.67;;
12120;SDS011;6124;59.460;17.908;2022-12-29T09:01:12;17.40;;;8.17;;
12120;SDS011;6124;59.460;17.908;2022-12-29T09:03:39;26.17;;;9.30;;
12120;SDS011;6124;59.460;17.908;2022-12-29T09:06:06;19.00;;;9.00;;
12120;SDS011;6124;59.460;17.908;2022-12-29T09:08:34;21.80;;;7.93;;
12120;SDS011;6124;59.460;17.908;2022-12-29T09:11:05;15.37;;;7.00;;
12120;SDS011;6124;59.460;17.908;2022-12-29T09:13:33;17.63;;;7.30;;
12120;SDS011;6124;59.460;17.908;2022-12-29T09:16:00;15.77;;;7.10;;
12120;SDS011;6124;59.460;17.908;2022-12-29T09:18:30;18.00;;;6.73;;
12120;SDS011;6124;59.460;17.908;2022-12-29T09:20:57;16.10;;;6.93;;
12120;SDS011;6124;59.460;17.908;2022-12-29T09:23:25;18.30;;;6.40;;
12120;SDS011;6124;59.460;17.908;2022-12-29T09:25:52;15.03;;;6.50;;
12120;SDS011;6124;59.460;17.908;2022-12-29T09:28:19;13.90;;;6.70;;
12120;SDS011;6124;59.460;17.908;2022-12-29T09:30:47;13.50;;;6.13;;
12120;SDS011;6124;59.460;17.908;2022-12-29T09:33:15;12.93;;;6.13;;
12120;SDS011;6124;59.460;17.908;2022-12-29T09:35:44;13.83;;;5.90;;
12120;SDS011;6124;59.460;17.908;2022-12-29T09:38:11;23.60;;;7.13;;
12120;SDS011;6124;59.460;17.908;2022-12-29T09:40:40;17.07;;;6.47;;
12120;SDS011;6124;59.460;17.908;2022-12-29T09:43:21;24.90;;;12.13;;
12120;SDS011;6124;59.460;17.908;2022-12-29T09:45:53;20.37;;;5.67;;
12120;SDS011;6124;59.460;17.908;2022-12-29T09:48:23;10.90;;;4.70;;
12120;SDS011;6124;59.460;17.908;2022-12-29T09:50:56;19.03;;;5.60;;
12120;SDS011;6124;59.460;17.908;2022-12-29T09:53:25;10.60;;;4.50;;
12120;SDS011;6124;59.460;17.908;2022-12-29T09:55:55;17.93;;;4.80;;
12120;SDS011;6124;59.460;17.908;2022-12-29T09:58:24;9.93;;;4.27;;
12120;SDS011;6124;59.460;17.908;2022-12-29T10:00:56;15.40;;;4.93;;
12120;SDS011;6124;59.460;17.908;2022-12-29T10:03:27;8.33;;;4.17;;
12120;SDS011;6124;59.460;17.908;2022-12-29T10:06:04;10.90;;;4.50;;
12120;SDS011;6124;59.460;17.908;2022-12-29T10:08:34;11.03;;;4.63;;
12120;SDS011;6124;59.460;17.908;2022-12-29T10:11:07;11.93;;;4.80;;
12120;SDS011;6124;59.460;17.908;2022-12-29T10:13:41;10.07;;;4.90;;
12120;SDS011;6124;59.460;17.908;2022-12-29T10:16:11;14.23;;;4.57;;
12120;SDS011;6124;59.460;17.908;2022-12-29T10:18:48;12.77;;;5.30;;
12120;SDS011;6124;59.460;17.908;2022-12-29T10:21:24;17.30;;;5.40;;
12120;SDS011;6124;59.460;17.908;2022-12-29T10:23:53;15.70;;;6.63;;
12120;SDS011;6124;59.460;17.908;2022-12-29T10:26:21;15.77;;;6.60;;
12120;SDS011;6124;59.460;17.908;2022-12-29T10:28:50;15.80;;;5.50;;
12120;SDS011;6124;59.460;17.908;2022-12-29T10:31:21;11.17;;;5.77;;
12120;SDS011;6124;59.460;17.908;2022-12-29T10:33:49;17.93;;;6.60;;
12120;SDS011;6124;59.460;17.908;2022-12-29T10:36:18;20.17;;;9.40;;
12120;SDS011;6124;59.460;17.908;2022-12-29T10:38:51;12.67;;;6.87;;
12120;SDS011;6124;59.460;17.908;2022-12-29T10:41:21;23.37;;;7.87;;
12120;SDS011;6124;59.460;17.908;2022-12-29T10:43:51;19.40;;;7.63;;
12120;SDS011;6124;59.460;17.908;2022-12-29T10:46:20;16.57;;;7.90;;
12120;SDS011;6124;59.460;17.908;2022-12-29T10:48:48;13.60;;;6.67;;
12120;SDS011;6124;59.460;17.908;2022-12-29T10:51:17;23.57;;;7.60;;
12120;SDS011;6124;59.460;17.908;2022-12-29T10:53:47;15.83;;;6.83;;
12120;SDS011;6124;59.460;17.908;2022-12-29T10:56:24;17.03;;;6.47;;
12120;SDS011;6124;59.460;17.908;2022-12-29T10:58:52;23.03;;;7.17;;
12120;SDS011;6124;59.460;17.908;2022-12-29T11:01:21;15.87;;;6.60;;
12120;SDS011;6124;59.460;17.908;2022-12-29T11:03:58;13.80;;;6.43;;
12120;SDS011;6124;59.460;17.908;2022-12-29T11:06:29;20.40;;;7.73;;
12120;SDS011;6124;59.460;17.908;2022-12-29T11:08:57;15.63;;;5.87;;
12120;SDS011;6124;59.460;17.908;2022-12-29T11:11:27;13.63;;;6.10;;
12120;SDS011;6124;59.460;17.908;2022-12-29T11:14:01;12.80;;;6.03;;
12120;SDS011;6124;59.460;17.908;2022-12-29T11:16:30;15.20;;;6.53;;
12120;SDS011;6124;59.460;17.908;2022-12-29T11:18:58;12.20;;;6.07;;
12120;SDS011;6124;59.460;17.908;2022-12-29T11:21:31;11.23;;;5.27;;
12120;SDS011;6124;59.460;17.908;2022-12-29T11:23:59;8.57;;;5.30;;
12120;SDS011;6124;59.460;17.908;2022-12-29T11:26:28;8.60;;;5.40;;
12120;SDS011;6124;59.460;17.908;2022-12-29T11:29:11;9.23;;;4.67;;
12120;SDS011;6124;59.460;17.908;2022-12-29T11:31:43;10.67;;;4.77;;
12120;SDS011;6124;59.460;17.908;2022-12-29T11:34:16;7.40;;;4.80;;
12120;SDS011;6124;59.460;17.908;2022-12-29T11:36:43;12.50;;;5.47;;
12120;SDS011;6124;59.460;17.908;2022-12-29T11:39:20;9.93;;;4.87;;
12120;SDS011;6124;59.460;17.908;2022-12-29T11:41:52;13.10;;;4.90;;
12120;SDS011;6124;59.460;17.908;2022-12-29T11:44:20;10.10;;;5.00;;
12120;SDS011;6124;59.460;17.908;2022-12-29T11:46:48;9.20;;;4.20;;
12120;SDS011;6124;59.460;17.908;2022-12-29T11:49:19;7.27;;;4.80;;
12120;SDS011;6124;59.460;17.908;2022-12-29T11:51:47;8.10;;;4.80;;
12120;SDS011;6124;59.460;17.908;2022-12-29T11:54:16;6.73;;;4.30;;
12120;SDS011;6124;59.460;17.908;2022-12-29T11:56:45;6.13;;;4.03;;
12120;SDS011;6124;59.460;17.908;2022-12-29T12:02:13;5.87;;;4.40;;
12120;SDS011;6124;59.460;17.908;2022-12-29T12:04:44;7.40;;;4.10;;
12120;SDS011;6124;59.460;17.908;2022-12-29T12:07:12;8.67;;;4.70;;
12120;SDS011;6124;59.460;17.908;2022-12-29T12:09:42;7.77;;;4.03;;
12120;SDS011;6124;59.460;17.908;2022-12-29T12:12:14;7.40;;;4.43;;
12120;SDS011;6124;59.460;17.908;2022-12-29T12:14:46;6.30;;;3.83;;
12120;SDS011;6124;59.460;17.908;2022-12-29T12:17:16;5.27;;;4.67;;
12120;SDS011;6124;59.460;17.908;2022-12-29T12:19:46;7.63;;;4.00;;
12120;SDS011;6124;59.460;17.908;2022-12-29T12:22:16;4.53;;;4.03;;
12120;SDS011;6124;59.460;17.908;2022-12-29T12:24:47;6.63;;;4.87;;
12120;SDS011;6124;59.460;17.908;2022-12-29T12:27:18;5.97;;;4.67;;
12120;SDS011;6124;59.460;17.908;2022-12-29T12:29:50;8.30;;;4.63;;
12120;SDS011;6124;59.460;17.908;2022-12-29T12:32:22;10.57;;;5.17;;
12120;SDS011;6124;59.460;17.908;2022-12-29T12:34:51;9.07;;;5.60;;
12120;SDS011;6124;59.460;17.908;2022-12-29T12:37:33;10.13;;;5.73;;
12120;SDS011;6124;59.460;17.908;2022-12-29T12:40:17;5.90;;;5.17;;
12120;SDS011;6124;59.460;17.908;2022-12-29T12:42:50;8.60;;;5.73;;
12120;SDS011;6124;59.460;17.908;2022-12-29T12:45:27;6.83;;;5.23;;
12120;SDS011;6124;59.460;17.908;2022-12-29T12:48:01;7.23;;;5.10;;
12120;SDS011;6124;59.460;17.908;2022-12-29T12:50:38;8.33;;;5.13;;
12120;SDS011;6124;59.460;17.908;2022-12-29T12:53:19;6.37;;;5.27;;
12120;SDS011;6124;59.460;17.908;2022-12-29T12:55:52;7.63;;;5.50;;
12120;SDS011;6124;59.460;17.908;2022-12-29T12:58:24;8.20;;;5.20;;
12120;SDS011;6124;59.460;17.908;2022-12-29T13:00:57;6.93;;;5.37;;
12120;SDS011;6124;59.460;17.908;2022-12-29T13:03:31;5.43;;;4.60;;
12120;SDS011;6124;59.460;17.908;2022-12-29T13:06:06;7.57;;;4.67;;
12120;SDS011;6124;59.460;17.908;2022-12-29T13:08:44;5.83;;;4.00;;
12120;SDS011;6124;59.460;17.908;2022-12-29T13:11:16;6.60;;;4.70;;
12120;SDS011;6124;59.460;17.908;2022-12-29T13:13:54;6.37;;;4.27;;
12120;SDS011;6124;59.460;17.908;2022-12-29T13:16:28;7.80;;;3.67;;
12120;SDS011;6124;59.460;17.908;2022-12-29T13:19:02;6.20;;;3.97;;
12120;SDS011;6124;59.460;17.908;2022-12-29T13:21:34;5.27;;;3.87;;
12120;SDS011;6124;59.460;17.908;2022-12-29T13:24:08;5.23;;;3.30;;
12120;SDS011;6124;59.460;17.908;2022-12-29T13:26:41;3.90;;;3.27;;
12120;SDS011;6124;59.460;17.908;2022-12-29T13:29:12;4.10;;;3.30;;
12120;SDS011;6124;59.460;17.908;2022-12-29T13:31:43;4.43;;;3.53;;
12120;SDS011;6124;59.460;17.908;2022-12-29T13:34:15;4.90;;;3.70;;
12120;SDS011;6124;59.460;17.908;2022-12-29T13:36:46;3.77;;;3.30;;
12120;SDS011;6124;59.460;17.908;2022-12-29T13:39:17;4.33;;;3.60;;
12120;SDS011;6124;59.460;17.908;2022-12-29T13:41:45;4.40;;;3.33;;
12120;SDS011;6124;59.460;17.908;2022-12-29T13:44:15;5.77;;;3.70;;
12120;SDS011;6124;59.460;17.908;2022-12-29T13:46:44;3.80;;;3.40;;
12120;SDS011;6124;59.460;17.908;2022-12-29T13:49:12;4.90;;;3.73;;
12120;SDS011;6124;59.460;17.908;2022-12-29T13:51:42;5.50;;;3.90;;
12120;SDS011;6124;59.460;17.908;2022-12-29T13:54:14;4.47;;;3.50;;
12120;SDS011;6124;59.460;17.908;2022-12-29T13:56:47;4.67;;;3.57;;
12120;SDS011;6124;59.460;17.908;2022-12-29T13:59:18;6.10;;;3.43;;
12120;SDS011;6124;59.460;17.908;2022-12-29T14:01:49;7.53;;;3.80;;
12120;SDS011;6124;59.460;17.908;2022-12-29T14:04:21;5.13;;;3.60;;
12120;SDS011;6124;59.460;17.908;2022-12-29T14:06:58;4.63;;;3.80;;
12120;SDS011;6124;59.460;17.908;2022-12-29T14:09:38;3.97;;;3.23;;
12120;SDS011;6124;59.460;17.908;2022-12-29T14:12:18;4.07;;;3.13;;
12120;SDS011;6124;59.460;17.908;2022-12-29T14:14:46;3.93;;;3.20;;
12120;SDS011;6124;59.460;17.908;2022-12-29T14:17:16;4.37;;;2.80;;
12120;SDS011;6124;59.460;17.908;2022-12-29T14:19:46;5.07;;;3.10;;
12120;SDS011;6124;59.460;17.908;2022-12-29T14:22:16;4.10;;;2.97;;
12120;SDS011;6124;59.460;17.908;2022-12-29T14:24:49;5.73;;;3.00;;
12120;SDS011;6124;59.460;17.908;2022-12-29T14:30:03;4.57;;;3.20;;
12120;SDS011;6124;59.460;17.908;2022-12-29T14:32:37;4.40;;;2.67;;
12120;SDS011;6124;59.460;17.908;2022-12-29T14:37:51;4.17;;;2.80;;
12120;SDS011;6124;59.460;17.908;2022-12-29T14:40:31;3.77;;;3.10;;
12120;SDS011;6124;59.460;17.908;2022-12-29T14:42:59;6.67;;;3.33;;
12120;SDS011;6124;59.460;17.908;2022-12-29T14:45:28;4.27;;;3.30;;
12120;SDS011;6124;59.460;17.908;2022-12-29T14:47:57;3.87;;;3.47;;
12120;SDS011;6124;59.460;17.908;2022-12-29T14:50:26;4.40;;;3.30;;
12120;SDS011;6124;59.460;17.908;2022-12-29T14:53:03;3.67;;;3.20;;
12120;SDS011;6124;59.460;17.908;2022-12-29T14:55:37;4.40;;;4.00;;
12120;SDS011;6124;59.460;17.908;2022-12-29T14:58:07;4.87;;;3.90;;
12120;SDS011;6124;59.460;17.908;2022-12-29T15:00:39;6.50;;;4.23;;
12120;SDS011;6124;59.460;17.908;2022-12-29T15:03:07;7.63;;;3.97;;
12120;SDS011;6124;59.460;17.908;2022-12-29T15:05:41;6.20;;;4.70;;
12120;SDS011;6124;59.460;17.908;2022-12-29T15:08:10;6.50;;;4.93;;